createdAt,value
2023-04-13T03:46:38.244Z,99.90
2023-04-13T03:49:08.403Z,99.90
2023-04-13T03:51:36.043Z,99.90
2023-04-13T03:54:03.244Z,99.90
2023-04-13T03:56:30.754Z,99.90
2023-04-13T03:58:57.601Z,99.90
2023-04-13T04:01:24.320Z,99.90
2023-04-13T04:03:53.542Z,99.90
2023-04-13T04:06:20.405Z,99.90
2023-04-13T04:08:49.615Z,99.90
2023-04-13T04:11:17.073Z,99.90
2023-04-13T04:13:43.903Z,99.90
2023-04-13T04:16:11.608Z,99.90
2023-04-13T04:18:38.835Z,99.90
2023-04-13T04:21:06.784Z,99.90
2023-04-13T04:23:34.934Z,99.90
2023-04-13T04:26:03.120Z,99.90
2023-04-13T04:28:38.618Z,99.90
2023-04-13T04:31:07.294Z,99.90
2023-04-13T04:33:34.025Z,99.90
2023-04-13T04:36:01.586Z,99.90
2023-04-13T04:38:30.401Z,99.90
2023-04-13T04:40:57.563Z,99.90
2023-04-13T04:43:27.124Z,99.90
2023-04-13T04:45:57.750Z,99.90
2023-04-13T04:48:27.021Z,99.90
2023-04-13T04:50:56.106Z,99.90
2023-04-13T04:53:23.489Z,99.90
2023-04-13T04:55:50.539Z,99.90
2023-04-13T04:58:18.926Z,99.90
2023-04-13T05:00:46.866Z,99.90
2023-04-13T05:03:13.729Z,99.90
2023-04-13T05:05:41.059Z,99.90
2023-04-13T05:08:08.608Z,99.90
2023-04-13T05:10:35.577Z,99.90
2023-04-13T05:13:02.317Z,99.90
2023-04-13T05:15:29.027Z,99.90
2023-04-13T05:17:56.328Z,99.90
2023-04-13T05:20:23.132Z,99.90
2023-04-13T05:22:49.940Z,99.90
2023-04-13T05:25:16.676Z,99.90
2023-04-13T05:27:43.341Z,99.90
2023-04-13T05:30:10.256Z,99.90
2023-04-13T05:32:37.234Z,99.90
2023-04-13T05:35:04.617Z,99.90
2023-04-13T05:37:31.992Z,99.90
2023-04-13T05:39:58.924Z,99.90
2023-04-13T05:42:25.724Z,99.90
2023-04-13T05:44:52.642Z,99.90
2023-04-13T05:47:23.028Z,99.90
2023-04-13T05:49:50.225Z,99.90
2023-04-13T05:52:16.976Z,99.90
2023-04-13T05:54:43.644Z,99.90
2023-04-13T05:57:10.291Z,99.90
2023-04-13T05:59:37.498Z,99.90
2023-04-13T06:02:04.745Z,99.90
2023-04-13T06:04:31.919Z,99.90
2023-04-13T06:06:59.457Z,99.90
2023-04-13T06:09:27.052Z,99.90
2023-04-13T06:11:54.500Z,99.90
2023-04-13T06:14:23.444Z,99.90
2023-04-13T06:16:50.108Z,99.90
2023-04-13T06:19:16.980Z,99.90
2023-04-13T06:21:43.739Z,99.90
2023-04-13T06:24:10.727Z,99.90
2023-04-13T06:26:37.566Z,99.90
2023-04-13T06:29:04.359Z,99.90
2023-04-13T06:31:31.822Z,99.90
2023-04-13T06:33:58.825Z,99.90
2023-04-13T06:36:25.816Z,99.90
2023-04-13T06:38:52.494Z,99.90
2023-04-13T06:41:19.151Z,99.90
2023-04-13T06:43:45.781Z,99.90
2023-04-13T06:46:14.291Z,99.90
2023-04-13T06:48:41.252Z,99.90
2023-04-13T06:51:07.948Z,99.90
2023-04-13T06:53:34.644Z,99.90
2023-04-13T06:56:01.503Z,99.90
2023-04-13T06:58:29.010Z,99.90
2023-04-13T07:00:55.759Z,99.90
2023-04-13T07:03:22.555Z,99.90
2023-04-13T07:05:49.290Z,99.90
2023-04-13T07:08:16.545Z,99.90
2023-04-13T07:10:43.426Z,99.90
2023-04-13T07:13:10.067Z,99.90
2023-04-13T07:15:38.127Z,99.90
2023-04-13T07:18:05.025Z,99.90
2023-04-13T07:20:31.759Z,99.90
2023-04-13T07:22:58.406Z,99.90
2023-04-13T07:25:25.385Z,99.90
2023-04-13T07:27:52.045Z,99.90
2023-04-13T07:30:18.836Z,99.90
2023-04-13T07:32:45.570Z,99.90
2023-04-13T07:35:12.313Z,99.90
2023-04-13T07:37:39.045Z,99.90
2023-04-13T07:40:06.723Z,99.90
2023-04-13T07:42:33.404Z,99.90
2023-04-13T07:45:00.045Z,99.90
2023-04-13T07:47:26.760Z,99.90
2023-04-13T07:49:54.138Z,99.90
2023-04-13T07:52:21.018Z,99.90
2023-04-13T07:54:47.689Z,99.90
2023-04-13T07:57:14.451Z,99.90
2023-04-13T07:59:41.113Z,99.90
2023-04-13T08:02:07.814Z,99.90
2023-04-13T08:04:34.996Z,99.90
2023-04-13T08:07:04.983Z,99.90
2023-04-13T08:09:38.496Z,99.90
2023-04-13T08:12:05.184Z,99.90
2023-04-13T08:14:31.957Z,99.90
2023-04-13T08:16:58.783Z,99.90
2023-04-13T08:19:25.502Z,99.90
2023-04-13T08:21:52.488Z,99.90
2023-04-13T08:24:20.742Z,99.90
2023-04-13T08:26:47.547Z,99.90
2023-04-13T08:29:14.410Z,99.90
2023-04-13T08:31:41.066Z,99.90
2023-04-13T08:34:10.383Z,99.90
2023-04-13T08:36:37.788Z,99.90
2023-04-13T08:39:05.961Z,99.90
2023-04-13T08:41:39.239Z,99.90
2023-04-13T08:44:08.541Z,99.90
2023-04-13T08:46:35.320Z,99.90
2023-04-13T08:49:03.441Z,99.90
2023-04-13T08:51:32.061Z,99.90
2023-04-13T08:53:59.301Z,99.90
2023-04-13T08:56:42.248Z,99.90
2023-04-13T08:59:15.264Z,99.90
2023-04-13T09:01:46.254Z,99.90
2023-04-13T09:04:17.853Z,99.90
2023-04-13T09:06:47.801Z,99.90
2023-04-13T09:09:14.869Z,99.90
2023-04-13T09:11:43.013Z,99.90
2023-04-13T09:14:10.081Z,99.90
2023-04-13T09:16:41.559Z,99.90
2023-04-13T09:19:08.882Z,99.90
2023-04-13T09:21:38.724Z,99.90
2023-04-13T09:24:06.760Z,99.90
2023-04-13T09:26:43.866Z,99.90
2023-04-13T09:29:16.365Z,99.90
2023-04-13T09:31:45.508Z,99.90
2023-04-13T09:34:13.683Z,99.90
2023-04-13T09:36:53.522Z,99.90
2023-04-13T09:39:29.032Z,99.90
2023-04-13T09:41:56.600Z,99.90
2023-04-13T09:44:24.768Z,99.90
2023-04-13T09:47:02.256Z,99.90
2023-04-13T09:49:43.019Z,99.90
2023-04-13T09:52:21.161Z,99.90
2023-04-13T09:55:01.247Z,99.90
2023-04-13T09:57:32.301Z,99.90
2023-04-13T10:00:07.077Z,99.90
2023-04-13T10:02:34.257Z,99.90
2023-04-13T10:05:01.649Z,99.90
2023-04-13T10:07:30.591Z,99.90
2023-04-13T10:09:57.245Z,99.90
2023-04-13T10:12:26.876Z,99.90
2023-04-13T10:14:58.647Z,99.90
2023-04-13T10:17:48.608Z,99.90
2023-04-13T10:20:15.498Z,99.90
2023-04-13T10:22:44.939Z,99.90
2023-04-13T10:25:25.671Z,99.90
2023-04-13T10:27:59.707Z,99.90
2023-04-13T10:30:27.070Z,99.90
2023-04-13T10:33:05.964Z,99.90
2023-04-13T10:35:37.084Z,99.90
2023-04-13T10:38:04.491Z,99.90
2023-04-13T10:40:45.490Z,99.90
2023-04-13T10:43:12.499Z,99.90
2023-04-13T10:45:39.168Z,99.90
2023-04-13T10:48:07.402Z,99.90
2023-04-13T10:50:34.354Z,99.90
2023-04-13T10:53:08.876Z,99.90
2023-04-13T10:55:35.921Z,99.90
2023-04-13T10:58:13.146Z,99.90
2023-04-13T11:00:46.480Z,99.90
2023-04-13T11:03:17.635Z,99.90
2023-04-13T11:05:55.744Z,99.90
2023-04-13T11:08:22.373Z,99.90
2023-04-13T11:10:56.369Z,99.90
2023-04-13T11:13:28.997Z,99.90
2023-04-13T11:16:03.406Z,99.90
2023-04-13T11:18:30.218Z,99.90
2023-04-13T11:20:57.219Z,99.90
2023-04-13T11:23:24.517Z,99.90
2023-04-13T11:25:54.886Z,99.90
2023-04-13T11:28:23.448Z,99.90
2023-04-13T11:30:56.459Z,99.90
2023-04-13T11:33:27.690Z,99.90
2023-04-13T11:35:58.952Z,97.90
2023-04-13T11:38:26.254Z,98.00
2023-04-13T11:41:14.403Z,94.80
2023-04-13T11:43:42.258Z,96.10
2023-04-13T11:46:12.727Z,99.10
2023-04-13T11:48:39.694Z,99.90
2023-04-13T11:51:06.586Z,99.90
2023-04-13T11:53:36.225Z,99.90
2023-04-13T11:56:03.175Z,99.90
2023-04-13T11:58:30.164Z,99.90
2023-04-13T12:01:03.307Z,99.90
2023-04-13T12:03:52.620Z,99.90
2023-04-13T12:06:23.216Z,99.90
2023-04-13T12:08:56.157Z,99.90
2023-04-13T12:11:41.392Z,99.90
2023-04-13T12:14:49.712Z,99.90
2023-04-13T12:19:46.274Z,99.90
2023-04-13T12:22:14.662Z,99.90
2023-04-13T12:24:42.794Z,99.90
2023-04-13T12:27:18.396Z,99.90
2023-04-13T12:29:46.024Z,99.90
2023-04-13T12:32:14.881Z,99.90
2023-04-13T12:34:43.231Z,99.90
2023-04-13T12:37:11.726Z,99.90
2023-04-13T12:39:38.506Z,99.90
2023-04-13T12:42:05.350Z,98.00
2023-04-13T12:44:34.106Z,98.30
2023-04-13T12:47:01.677Z,94.80
2023-04-13T12:49:28.457Z,95.50
2023-04-13T12:51:55.145Z,93.10
2023-04-13T12:54:21.868Z,93.40
2023-04-13T12:56:48.545Z,91.70
2023-04-13T12:59:15.316Z,91.70
2023-04-13T13:01:41.939Z,89.80
2023-04-13T13:04:08.653Z,87.70
2023-04-13T13:06:35.359Z,90.20
2023-04-13T13:09:02.226Z,91.10
2023-04-13T13:11:29.124Z,91.50
2023-04-13T13:13:55.718Z,90.90
2023-04-13T13:16:22.416Z,91.70
2023-04-13T13:18:51.303Z,91.50
2023-04-13T13:21:28.042Z,92.40
2023-04-13T13:23:54.779Z,92.40
2023-04-13T13:26:24.480Z,92.30
2023-04-13T13:28:52.749Z,91.80
2023-04-13T13:31:19.678Z,91.50
2023-04-13T13:33:46.961Z,91.90
2023-04-13T13:36:14.065Z,93.10
2023-04-13T13:38:42.592Z,93.80
2023-04-13T13:41:09.257Z,94.30
2023-04-13T13:43:36.001Z,94.70
2023-04-13T13:46:02.645Z,94.90
2023-04-13T13:48:29.299Z,94.40
2023-04-13T13:50:56.094Z,94.40
2023-04-13T13:53:23.067Z,94.70
2023-04-13T13:55:52.678Z,94.70
2023-04-13T13:58:19.443Z,95.50
2023-04-13T14:00:46.079Z,95.00
2023-04-13T14:03:14.904Z,94.80
2023-04-13T14:05:43.299Z,93.90
2023-04-13T14:08:10.528Z,95.30
2023-04-13T14:10:37.305Z,95.60
2023-04-13T14:13:04.020Z,99.30
2023-04-13T14:15:30.842Z,99.90
2023-04-13T14:18:09.991Z,99.90
2023-04-13T14:20:39.107Z,99.90
2023-04-13T14:23:06.461Z,99.90
2023-04-13T14:25:33.101Z,99.90
2023-04-13T14:28:00.060Z,99.90
2023-04-13T14:30:28.128Z,99.90
2023-04-13T14:32:56.131Z,99.90
2023-04-13T14:35:23.066Z,99.90
2023-04-13T14:37:49.750Z,99.90
2023-04-13T14:40:20.711Z,99.90
2023-04-13T14:42:47.939Z,99.90
2023-04-13T14:45:14.680Z,99.90
2023-04-13T14:47:41.746Z,99.90
2023-04-13T14:50:09.825Z,99.90
2023-04-13T14:52:36.580Z,99.90
2023-04-13T14:55:04.168Z,99.90
2023-04-13T14:57:31.345Z,99.90
2023-04-13T14:59:57.931Z,99.90
2023-04-13T15:02:24.826Z,99.90
2023-04-13T15:04:51.769Z,99.90
2023-04-13T15:07:18.857Z,99.90
2023-04-13T15:09:45.526Z,99.90
2023-04-13T15:12:13.754Z,99.90
2023-04-13T15:14:40.887Z,99.90
2023-04-13T15:17:08.650Z,99.90
2023-04-13T15:19:35.291Z,99.90
2023-04-13T15:22:02.021Z,99.90
2023-04-13T15:24:28.689Z,99.90
2023-04-13T15:26:55.430Z,99.90
2023-04-13T15:29:22.070Z,99.90
2023-04-13T15:31:48.888Z,99.90
2023-04-13T15:34:16.447Z,99.90
2023-04-13T15:36:43.126Z,99.90
2023-04-13T15:39:09.781Z,99.90
2023-04-13T15:41:36.392Z,99.90
2023-04-13T15:44:03.357Z,99.90
2023-04-13T15:46:30.283Z,99.90
2023-04-13T15:48:57.031Z,99.90
2023-04-13T15:51:23.795Z,99.90
2023-04-13T15:53:50.620Z,99.90
2023-04-13T15:56:17.526Z,99.90
2023-04-13T15:58:44.389Z,99.90
2023-04-13T16:01:12.155Z,99.90
2023-04-13T16:03:40.971Z,99.90
2023-04-13T16:06:08.686Z,99.90
2023-04-13T16:08:35.603Z,99.90
2023-04-13T16:11:02.259Z,99.90
2023-04-13T16:13:47.257Z,99.90
2023-04-13T16:16:15.883Z,99.90
2023-04-13T16:18:42.578Z,99.90
2023-04-13T16:21:10.667Z,99.90
2023-04-13T16:23:37.462Z,99.90
2023-04-13T16:26:05.036Z,99.90
2023-04-13T16:28:31.831Z,99.90
2023-04-13T16:30:58.998Z,99.90
2023-04-13T16:33:25.709Z,99.90
2023-04-13T16:35:52.415Z,99.90
2023-04-13T16:38:19.064Z,99.90
2023-04-13T16:40:45.802Z,99.90
2023-04-13T16:43:13.022Z,99.90
2023-04-13T16:45:39.667Z,99.90
2023-04-13T16:48:06.482Z,99.90
2023-04-13T16:50:33.176Z,99.90
2023-04-13T16:52:59.896Z,99.90
2023-04-13T16:55:28.492Z,99.90
2023-04-13T16:57:55.633Z,99.90
2023-04-13T17:00:22.966Z,99.90
2023-04-13T17:02:49.796Z,99.90
2023-04-13T17:05:16.960Z,99.90
2023-04-13T17:07:44.450Z,99.90
2023-04-13T17:10:12.925Z,99.90
2023-04-13T17:12:40.275Z,99.90
2023-04-13T17:15:07.735Z,99.90
2023-04-13T17:17:35.122Z,99.90
2023-04-13T17:20:02.145Z,99.90
2023-04-13T17:22:28.884Z,99.90
2023-04-13T17:24:55.770Z,99.90
2023-04-13T17:27:22.594Z,99.90
2023-04-13T17:29:49.869Z,99.90
2023-04-13T17:32:16.910Z,99.90
2023-04-13T17:34:44.760Z,99.90
2023-04-13T17:37:11.819Z,99.90
2023-04-13T17:39:42.103Z,99.90
2023-04-13T17:42:09.444Z,99.90
2023-04-13T17:44:36.267Z,99.90
2023-04-13T17:47:03.091Z,99.90
2023-04-13T17:49:29.927Z,99.90
2023-04-13T17:51:59.433Z,99.90
2023-04-13T17:54:27.028Z,99.90
2023-04-13T17:56:54.237Z,99.90
2023-04-13T17:59:21.432Z,99.90
2023-04-13T18:01:52.003Z,99.90
2023-04-13T18:04:19.226Z,99.90
2023-04-13T18:06:46.242Z,99.90
2023-04-13T18:09:12.892Z,99.90
2023-04-13T18:11:39.874Z,99.90
2023-04-13T18:14:08.853Z,99.90
2023-04-13T18:16:36.195Z,99.90
2023-04-13T18:19:03.972Z,99.90
2023-04-13T18:21:32.433Z,99.90
2023-04-13T18:24:01.120Z,99.90
2023-04-13T18:26:28.865Z,99.90
2023-04-13T18:28:55.807Z,99.90
2023-04-13T18:31:22.544Z,99.90
2023-04-13T18:33:49.317Z,99.90
2023-04-13T18:36:17.240Z,99.90
2023-04-13T18:38:44.579Z,99.90
2023-04-13T18:41:11.886Z,99.90
2023-04-13T18:43:38.665Z,99.90
2023-04-13T18:46:05.770Z,99.90
2023-04-13T18:48:32.445Z,99.90
2023-04-13T18:51:00.191Z,99.90
2023-04-13T18:53:26.876Z,99.90
2023-04-13T18:55:53.551Z,99.90
2023-04-13T18:58:20.858Z,99.90
2023-04-13T19:00:47.872Z,99.90
2023-04-13T19:03:15.121Z,99.90
2023-04-13T19:05:41.966Z,99.90
2023-04-13T19:08:09.899Z,99.90
2023-04-13T19:10:36.681Z,99.90
2023-04-13T19:13:03.483Z,99.90
2023-04-13T19:15:31.338Z,99.90
2023-04-13T19:17:59.238Z,99.90
2023-04-13T19:20:26.027Z,99.90
2023-04-13T19:22:52.729Z,99.90
2023-04-13T19:25:19.580Z,99.90
2023-04-13T19:27:46.929Z,99.90
2023-04-13T19:30:15.562Z,99.90
2023-04-13T19:32:44.293Z,99.90
2023-04-13T19:35:12.467Z,99.90
2023-04-13T19:37:39.648Z,99.90
2023-04-13T19:40:09.543Z,99.90
2023-04-13T19:42:36.874Z,99.90
2023-04-13T19:45:04.292Z,99.90
2023-04-13T19:47:31.136Z,99.90
2023-04-13T19:49:57.890Z,99.90
2023-04-13T19:52:25.022Z,99.90
2023-04-13T19:54:51.774Z,99.90
2023-04-13T19:57:18.644Z,99.90
2023-04-13T19:59:45.593Z,99.90
2023-04-13T20:02:12.738Z,99.90
2023-04-13T20:04:39.981Z,99.90
2023-04-13T20:07:07.640Z,99.90
2023-04-13T20:09:34.380Z,99.90
2023-04-13T20:12:01.530Z,99.90
2023-04-13T20:14:28.230Z,99.90
2023-04-13T20:16:54.979Z,99.90
2023-04-13T20:19:23.628Z,99.90
2023-04-13T20:21:51.439Z,99.90
2023-04-13T20:24:18.757Z,99.90
2023-04-13T20:26:46.874Z,99.90
2023-04-13T20:29:16.655Z,99.90
2023-04-13T20:31:43.318Z,99.90
2023-04-13T20:34:11.986Z,99.90
2023-04-13T20:36:38.752Z,99.90
2023-04-13T20:39:05.923Z,99.90
2023-04-13T20:41:34.872Z,99.90
2023-04-13T20:44:03.029Z,99.90
2023-04-13T20:46:34.694Z,99.90
2023-04-13T20:49:04.185Z,99.90
2023-04-13T20:51:31.321Z,99.90
2023-04-13T20:53:58.706Z,99.90
2023-04-13T20:56:26.398Z,99.90
2023-04-13T20:58:57.725Z,99.90
2023-04-13T21:01:25.232Z,99.90
2023-04-13T21:03:52.587Z,99.90
2023-04-13T21:06:19.482Z,99.90
2023-04-13T21:08:46.380Z,99.90
2023-04-13T21:11:13.153Z,99.90
2023-04-13T21:13:39.883Z,99.90
2023-04-13T21:16:08.423Z,99.90
2023-04-13T21:18:35.191Z,99.90
2023-04-13T21:21:01.881Z,99.90
2023-04-13T21:23:28.626Z,99.90
2023-04-13T21:25:55.260Z,99.90
2023-04-13T21:28:21.929Z,99.90
2023-04-13T21:30:48.570Z,99.90
2023-04-13T21:33:15.300Z,99.90
2023-04-13T21:35:41.968Z,99.90
2023-04-13T21:38:08.601Z,99.90
2023-04-13T21:40:35.886Z,99.90
2023-04-13T21:43:02.913Z,99.90
2023-04-13T21:45:29.564Z,99.90
2023-04-13T21:47:56.330Z,99.90
2023-04-13T21:50:23.032Z,99.90
2023-04-13T21:52:50.020Z,99.90
2023-04-13T21:55:19.643Z,99.90
2023-04-13T21:57:46.904Z,99.90
2023-04-13T22:00:14.850Z,99.90
2023-04-13T22:02:42.089Z,99.90
2023-04-13T22:05:11.279Z,99.90
2023-04-13T22:07:42.915Z,99.90
2023-04-13T22:10:10.728Z,99.90
2023-04-13T22:12:37.945Z,99.90
2023-04-13T22:15:05.107Z,99.90
2023-04-13T22:17:32.305Z,99.90
2023-04-13T22:19:59.169Z,99.90
2023-04-13T22:22:25.850Z,99.90
2023-04-13T22:24:53.135Z,99.90
2023-04-13T22:27:19.932Z,99.90
2023-04-13T22:29:47.662Z,99.90
2023-04-13T22:32:15.728Z,99.90
2023-04-13T22:34:42.330Z,99.90
2023-04-13T22:37:10.388Z,99.90
2023-04-13T22:39:37.271Z,99.90
2023-04-13T22:42:04.111Z,99.90
2023-04-13T22:44:34.463Z,99.90
2023-04-13T22:47:02.363Z,99.90
2023-04-13T22:49:29.937Z,99.90
2023-04-13T22:51:56.838Z,99.90
2023-04-13T22:54:24.071Z,99.90
2023-04-13T22:56:51.343Z,99.90
2023-04-13T22:59:18.453Z,99.90
